PWSweather.com
Personal Weather Stations
Station Observations
KCAPARAD1
Greenthumb Ln Near Elliott Rd, Paradise, CA 95969

Greenthumb Ln Near Elliott RdParadise, CA 95969

Lat: 39.759, Lon: -121.612

Elevation: 1824

Station Type: Davis Vantage Pro2 Plus

http://paradiseweatherstation.org

Latest ConditionsUpdated 7:00:01 AM PDT Monday, Jun 26, 2017
Currently Today's Max Today's Min Today's Average
Temperature 64.3°F17.9°C 71.4°F21.9°C 63.1°F17.3°C 66.6°F19.2°C
Dew Point 56.9°F13.8°C 60.9°F16.1°C 55.5°F13.1°C 57.5°F14.2°C
Winds Calm Calm Calm SWCalm SW - Calm Calm
Wind Gusts -- -- - -
Humidity 77% 78% 69% 73%
Pressure 29.88 in1011.9 mb 29.88 in1011.9 mb 29.85 in1010.8 mb -
Hour Temp Dew Point Humidity Winds Wind Gusts Pressure Precip Precip Rate Daily Precip Total
07:00 AM 64.3°F17.9°C 56.9°F13.8°C 77% Calm Calm -- 29.88 in1011.9 mb - 0.00 in0.0 mm 0.00 in0.0 mm
06:55 AM 64.0°F17.8°C 56.6°F13.7°C 77% Calm Calm -- 29.88 in1011.9 mb - 0.00 in0.0 mm 0.00 in0.0 mm
06:50 AM 63.8°F17.7°C 56.4°F13.6°C 77% Calm Calm -- 29.87 in1011.5 mb - 0.00 in0.0 mm 0.00 in0.0 mm
06:45 AM 63.8°F17.7°C 56.4°F13.6°C 77% Calm Calm -- 29.87 in1011.5 mb - 0.00 in0.0 mm 0.00 in0.0 mm
06:40 AM 63.6°F17.6°C 56.3°F13.5°C 77% Calm Calm -- 29.87 in1011.5 mb - 0.00 in0.0 mm 0.00 in0.0 mm
06:35 AM 63.5°F17.5°C 56.2°F13.4°C 77% Calm Calm -- 29.87 in1011.5 mb - 0.00 in0.0 mm 0.00 in0.0 mm
06:30 AM 63.4°F17.4°C 56.4°F13.6°C 78% Calm Calm -- 29.87 in1011.5 mb - 0.00 in0.0 mm 0.00 in0.0 mm
06:25 AM 63.2°F17.3°C 56.2°F13.4°C 78% Calm Calm -- 29.87 in1011.5 mb - 0.00 in0.0 mm 0.00 in0.0 mm
06:20 AM 63.1°F17.3°C 55.8°F13.2°C 77% Calm Calm -- 29.87 in1011.5 mb - 0.00 in0.0 mm 0.00 in0.0 mm
06:15 AM 63.2°F17.3°C 55.9°F13.3°C 77% Calm Calm -- 29.87 in1011.5 mb - 0.00 in0.0 mm 0.00 in0.0 mm
06:10 AM 63.2°F17.3°C 55.9°F13.3°C 77% Calm Calm -- 29.87 in1011.5 mb - 0.00 in0.0 mm 0.00 in0.0 mm
06:00 AM 63.4°F17.4°C 55.7°F13.2°C 76% Calm Calm -- 29.87 in1011.5 mb - 0.00 in0.0 mm 0.00 in0.0 mm
05:55 AM 63.6°F17.6°C 55.5°F13.1°C 75% Calm Calm -- 29.87 in1011.5 mb - 0.00 in0.0 mm 0.00 in0.0 mm
05:50 AM 63.6°F17.6°C 55.9°F13.3°C 76% Calm Calm -- 29.87 in1011.5 mb - 0.00 in0.0 mm 0.00 in0.0 mm
05:45 AM 63.6°F17.6°C 55.5°F13.1°C 75% Calm Calm -- 29.87 in1011.5 mb - 0.00 in0.0 mm 0.00 in0.0 mm
05:40 AM 63.6°F17.6°C 55.9°F13.3°C 76% Calm Calm -- 29.87 in1011.5 mb - 0.00 in0.0 mm 0.00 in0.0 mm
05:35 AM 63.8°F17.7°C 55.7°F13.2°C 75% Calm Calm -- 29.87 in1011.5 mb - 0.00 in0.0 mm 0.00 in0.0 mm
05:30 AM 63.6°F17.6°C 55.5°F13.1°C 75% Calm Calm -- 29.87 in1011.5 mb - 0.00 in0.0 mm 0.00 in0.0 mm
05:25 AM 63.8°F17.7°C 55.8°F13.2°C 75% Calm Calm -- 29.87 in1011.5 mb - 0.00 in0.0 mm 0.00 in0.0 mm
05:20 AM 64.1°F17.8°C 56.0°F13.3°C 75% Calm Calm -- 29.87 in1011.5 mb - 0.00 in0.0 mm 0.00 in0.0 mm
05:15 AM 64.2°F17.9°C 56.1°F13.4°C 75% Calm Calm -- 29.87 in1011.5 mb - 0.00 in0.0 mm 0.00 in0.0 mm
05:10 AM 64.3°F17.9°C 56.2°F13.4°C 75% Calm Calm -- 29.87 in1011.5 mb - 0.00 in0.0 mm 0.00 in0.0 mm
05:00 AM 64.5°F18.1°C 56.1°F13.4°C 74% Calm Calm -- 29.86 in1011.2 mb - 0.00 in0.0 mm 0.00 in0.0 mm
04:55 AM 64.5°F18.1°C 56.4°F13.6°C 75% Calm Calm -- 29.86 in1011.2 mb - 0.00 in0.0 mm 0.00 in0.0 mm
04:50 AM 64.7°F18.2°C 56.2°F13.4°C 74% Calm Calm -- 29.86 in1011.2 mb - 0.00 in0.0 mm 0.00 in0.0 mm
04:45 AM 64.8°F18.2°C 56.3°F13.5°C 74% Calm Calm -- 29.86 in1011.2 mb - 0.00 in0.0 mm 0.00 in0.0 mm
04:40 AM 65.0°F18.3°C 56.5°F13.6°C 74% Calm Calm -- 29.86 in1011.2 mb - 0.00 in0.0 mm 0.00 in0.0 mm
04:35 AM 64.9°F18.3°C 56.4°F13.6°C 74% Calm Calm -- 29.86 in1011.2 mb - 0.00 in0.0 mm 0.00 in0.0 mm
04:30 AM 65.0°F18.3°C 56.5°F13.6°C 74% Calm Calm -- 29.86 in1011.2 mb - 0.00 in0.0 mm 0.00 in0.0 mm
04:25 AM 65.1°F18.4°C 56.6°F13.7°C 74% Calm Calm -- 29.86 in1011.2 mb - 0.00 in0.0 mm 0.00 in0.0 mm
04:20 AM 65.3°F18.5°C 56.4°F13.6°C 73% Calm Calm -- 29.85 in1010.8 mb - 0.00 in0.0 mm 0.00 in0.0 mm
04:15 AM 65.5°F18.6°C 56.6°F13.7°C 73% Calm Calm -- 29.85 in1010.8 mb - 0.00 in0.0 mm 0.00 in0.0 mm
04:10 AM 65.5°F18.6°C 57.0°F13.9°C 74% Calm Calm -- 29.85 in1010.8 mb - 0.00 in0.0 mm 0.00 in0.0 mm
04:00 AM 65.6°F18.7°C 56.7°F13.7°C 73% Calm Calm -- 29.86 in1011.2 mb - 0.00 in0.0 mm 0.00 in0.0 mm
03:55 AM 65.7°F18.7°C 56.8°F13.8°C 73% Calm Calm -- 29.85 in1010.8 mb - 0.00 in0.0 mm 0.00 in0.0 mm
03:50 AM 65.9°F18.8°C 56.6°F13.7°C 72% Calm Calm -- 29.85 in1010.8 mb - 0.00 in0.0 mm 0.00 in0.0 mm
03:45 AM 66.1°F18.9°C 56.8°F13.8°C 72% Calm Calm -- 29.85 in1010.8 mb - 0.00 in0.0 mm 0.00 in0.0 mm
03:40 AM 66.2°F19.0°C 56.5°F13.6°C 71% Calm Calm -- 29.85 in1010.8 mb - 0.00 in0.0 mm 0.00 in0.0 mm
03:35 AM 66.3°F19.1°C 57.0°F13.9°C 72% Calm Calm -- 29.85 in1010.8 mb - 0.00 in0.0 mm 0.00 in0.0 mm
03:30 AM 66.5°F19.2°C 57.2°F14.0°C 72% Calm Calm -- 29.85 in1010.8 mb - 0.00 in0.0 mm 0.00 in0.0 mm
03:25 AM 66.6°F19.2°C 57.3°F14.1°C 72% Calm Calm -- 29.85 in1010.8 mb - 0.00 in0.0 mm 0.00 in0.0 mm
03:20 AM 66.7°F19.3°C 57.0°F13.9°C 71% Calm Calm -- 29.85 in1010.8 mb - 0.00 in0.0 mm 0.00 in0.0 mm
03:15 AM 66.7°F19.3°C 57.0°F13.9°C 71% Calm Calm -- 29.86 in1011.2 mb - 0.00 in0.0 mm 0.00 in0.0 mm
03:10 AM 66.8°F19.3°C 57.1°F13.9°C 71% Calm Calm -- 29.85 in1010.8 mb - 0.00 in0.0 mm 0.00 in0.0 mm
03:00 AM 67.1°F19.5°C 57.3°F14.1°C 71% Calm Calm -- 29.85 in1010.8 mb - 0.00 in0.0 mm 0.00 in0.0 mm
02:55 AM 67.1°F19.5°C 57.4°F14.1°C 71% Calm Calm -- 29.85 in1010.8 mb - 0.00 in0.0 mm 0.00 in0.0 mm
02:50 AM 67.3°F19.6°C 57.2°F14.0°C 70% Calm Calm -- 29.85 in1010.8 mb - 0.00 in0.0 mm 0.00 in0.0 mm
02:45 AM 67.6°F19.8°C 57.9°F14.4°C 71% Calm Calm -- 29.85 in1010.8 mb - 0.00 in0.0 mm 0.00 in0.0 mm
02:40 AM 67.7°F19.8°C 57.6°F14.2°C 70% Calm Calm -- 29.86 in1011.2 mb - 0.00 in0.0 mm 0.00 in0.0 mm
02:35 AM 67.8°F19.9°C 57.7°F14.3°C 70% Calm Calm -- 29.85 in1010.8 mb - 0.00 in0.0 mm 0.00 in0.0 mm
02:30 AM 67.9°F19.9°C 57.4°F14.1°C 69% Calm Calm -- 29.85 in1010.8 mb - 0.00 in0.0 mm 0.00 in0.0 mm
02:25 AM 68.0°F20.0°C 57.5°F14.2°C 69% Calm Calm -- 29.86 in1011.2 mb - 0.00 in0.0 mm 0.00 in0.0 mm
02:20 AM 68.1°F20.1°C 57.9°F14.4°C 70% Calm Calm -- 29.85 in1010.8 mb - 0.00 in0.0 mm 0.00 in0.0 mm
02:15 AM 68.2°F20.1°C 58.0°F14.4°C 70% Calm Calm -- 29.85 in1010.8 mb - 0.00 in0.0 mm 0.00 in0.0 mm
02:10 AM 68.2°F20.1°C 58.0°F14.4°C 70% Calm Calm -- 29.85 in1010.8 mb - 0.00 in0.0 mm 0.00 in0.0 mm
02:00 AM 68.5°F20.3°C 58.3°F14.6°C 70% Calm Calm -- 29.86 in1011.2 mb - 0.00 in0.0 mm 0.00 in0.0 mm
01:55 AM 68.6°F20.3°C 58.4°F14.7°C 70% Calm Calm -- 29.86 in1011.2 mb - 0.00 in0.0 mm 0.00 in0.0 mm
01:50 AM 68.8°F20.4°C 58.6°F14.8°C 70% Calm Calm -- 29.86 in1011.2 mb - 0.00 in0.0 mm 0.00 in0.0 mm
01:45 AM 68.8°F20.4°C 59.0°F15.0°C 71% Calm Calm -- 29.86 in1011.2 mb - 0.00 in0.0 mm 0.00 in0.0 mm
01:40 AM 69.0°F20.6°C 58.8°F14.9°C 70% Calm Calm -- 29.86 in1011.2 mb - 0.00 in0.0 mm 0.00 in0.0 mm
01:35 AM 69.1°F20.6°C 59.3°F15.2°C 71% Calm Calm -- 29.86 in1011.2 mb - 0.00 in0.0 mm 0.00 in0.0 mm
01:30 AM 69.2°F20.7°C 59.4°F15.2°C 71% Calm Calm -- 29.86 in1011.2 mb - 0.00 in0.0 mm 0.00 in0.0 mm
01:25 AM 69.3°F20.7°C 59.5°F15.3°C 71% Calm Calm -- 29.86 in1011.2 mb - 0.00 in0.0 mm 0.00 in0.0 mm
01:20 AM 69.5°F20.8°C 59.3°F15.2°C 70% Calm Calm -- 29.86 in1011.2 mb - 0.00 in0.0 mm 0.00 in0.0 mm
01:15 AM 69.5°F20.8°C 59.3°F15.2°C 70% Calm Calm -- 29.86 in1011.2 mb - 0.00 in0.0 mm 0.00 in0.0 mm
01:10 AM 69.7°F20.9°C 59.5°F15.3°C 70% Calm Calm -- 29.86 in1011.2 mb - 0.00 in0.0 mm 0.00 in0.0 mm
01:00 AM 69.9°F21.1°C 59.7°F15.4°C 70% Calm Calm -- 29.86 in1011.2 mb - 0.00 in0.0 mm 0.00 in0.0 mm
12:55 AM 70.1°F21.2°C 59.9°F15.5°C 70% Calm Calm -- 29.86 in1011.2 mb - 0.00 in0.0 mm 0.00 in0.0 mm
12:50 AM 70.2°F21.2°C 60.0°F15.6°C 70% Calm Calm -- 29.86 in1011.2 mb - 0.00 in0.0 mm 0.00 in0.0 mm
12:45 AM 70.4°F21.3°C 60.1°F15.6°C 70% Calm Calm -- 29.86 in1011.2 mb - 0.00 in0.0 mm 0.00 in0.0 mm
12:40 AM 70.4°F21.3°C 60.1°F15.6°C 70% Calm Calm -- 29.86 in1011.2 mb - 0.00 in0.0 mm 0.00 in0.0 mm
12:35 AM 70.6°F21.4°C 60.3°F15.7°C 70% Calm Calm -- 29.86 in1011.2 mb - 0.00 in0.0 mm 0.00 in0.0 mm
12:30 AM 70.7°F21.5°C 60.5°F15.8°C 70% Calm Calm -- 29.86 in1011.2 mb - 0.00 in0.0 mm 0.00 in0.0 mm
12:25 AM 70.9°F21.6°C 60.6°F15.9°C 70% Calm Calm -- 29.86 in1011.2 mb - 0.00 in0.0 mm 0.00 in0.0 mm
12:20 AM 70.9°F21.6°C 60.6°F15.9°C 70% Calm Calm -- 29.86 in1011.2 mb - 0.00 in0.0 mm 0.00 in0.0 mm
12:15 AM 71.0°F21.7°C 60.3°F15.7°C 69% Calm Calm -- 29.86 in1011.2 mb - 0.00 in0.0 mm 0.00 in0.0 mm
12:10 AM 71.2°F21.8°C 60.9°F16.1°C 70% Calm Calm -- 29.86 in1011.2 mb - 0.00 in0.0 mm 0.00 in0.0 mm
12:00 AM 71.4°F21.9°C 60.7°F15.9°C 69% Calm Calm -- 29.86 in1011.2 mb - 0.00 in0.0 mm 0.00 in0.0 mm